sensor_id;sensor_type;location;lat;lon;timestamp;P1;durP1;ratioP1;P2;durP2;ratioP2
27889;SDS011;15238;49.082;9.102;2023-02-21T00:00:49;6.28;;;2.33;;
27889;SDS011;15238;49.082;9.102;2023-02-21T00:03:08;7.82;;;2.50;;
27889;SDS011;15238;49.082;9.102;2023-02-21T00:05:28;7.13;;;2.88;;
27889;SDS011;15238;49.082;9.102;2023-02-21T00:07:47;5.88;;;2.13;;
27889;SDS011;15238;49.082;9.102;2023-02-21T00:10:07;6.13;;;2.08;;
27889;SDS011;15238;49.082;9.102;2023-02-21T00:12:28;7.22;;;2.58;;
27889;SDS011;15238;49.082;9.102;2023-02-21T00:14:48;9.38;;;2.58;;
27889;SDS011;15238;49.082;9.102;2023-02-21T00:17:07;3.03;;;1.90;;
27889;SDS011;15238;49.082;9.102;2023-02-21T00:19:26;9.05;;;2.85;;
27889;SDS011;15238;49.082;9.102;2023-02-21T00:21:45;6.83;;;2.33;;
27889;SDS011;15238;49.082;9.102;2023-02-21T00:24:04;8.90;;;2.63;;
27889;SDS011;15238;49.082;9.102;2023-02-21T00:26:23;4.90;;;2.58;;
27889;SDS011;15238;49.082;9.102;2023-02-21T00:28:43;7.50;;;2.70;;
27889;SDS011;15238;49.082;9.102;2023-02-21T00:31:02;5.80;;;2.67;;
27889;SDS011;15238;49.082;9.102;2023-02-21T00:33:21;5.45;;;2.15;;
27889;SDS011;15238;49.082;9.102;2023-02-21T00:35:40;4.00;;;1.92;;
27889;SDS011;15238;49.082;9.102;2023-02-21T00:37:59;6.32;;;2.05;;
27889;SDS011;15238;49.082;9.102;2023-02-21T00:40:18;9.13;;;2.40;;
27889;SDS011;15238;49.082;9.102;2023-02-21T00:42:37;4.90;;;1.63;;
27889;SDS011;15238;49.082;9.102;2023-02-21T00:44:56;6.25;;;1.90;;
27889;SDS011;15238;49.082;9.102;2023-02-21T00:47:15;3.90;;;1.60;;
27889;SDS011;15238;49.082;9.102;2023-02-21T00:49:34;6.13;;;1.73;;
27889;SDS011;15238;49.082;9.102;2023-02-21T00:51:53;6.50;;;2.25;;
27889;SDS011;15238;49.082;9.102;2023-02-21T00:54:13;5.68;;;1.80;;
27889;SDS011;15238;49.082;9.102;2023-02-21T00:56:32;4.70;;;2.03;;
27889;SDS011;15238;49.082;9.102;2023-02-21T00:58:51;5.57;;;2.53;;
27889;SDS011;15238;49.082;9.102;2023-02-21T01:01:10;9.35;;;2.20;;
27889;SDS011;15238;49.082;9.102;2023-02-21T01:03:29;5.45;;;2.03;;
27889;SDS011;15238;49.082;9.102;2023-02-21T01:05:48;6.80;;;2.40;;
27889;SDS011;15238;49.082;9.102;2023-02-21T01:08:08;9.48;;;2.10;;
27889;SDS011;15238;49.082;9.102;2023-02-21T01:10:27;6.93;;;2.60;;
27889;SDS011;15238;49.082;9.102;2023-02-21T01:12:46;8.27;;;2.00;;
27889;SDS011;15238;49.082;9.102;2023-02-21T01:15:05;7.93;;;2.17;;
27889;SDS011;15238;49.082;9.102;2023-02-21T01:17:25;8.38;;;2.10;;
27889;SDS011;15238;49.082;9.102;2023-02-21T01:19:44;6.60;;;2.70;;
27889;SDS011;15238;49.082;9.102;2023-02-21T01:22:03;7.47;;;2.53;;
27889;SDS011;15238;49.082;9.102;2023-02-21T01:24:23;6.90;;;2.83;;
27889;SDS011;15238;49.082;9.102;2023-02-21T01:26:42;6.25;;;2.67;;
27889;SDS011;15238;49.082;9.102;2023-02-21T01:29:01;7.10;;;3.10;;
27889;SDS011;15238;49.082;9.102;2023-02-21T01:31:21;8.77;;;3.65;;
27889;SDS011;15238;49.082;9.102;2023-02-21T01:33:40;7.03;;;3.42;;
27889;SDS011;15238;49.082;9.102;2023-02-21T01:35:59;7.47;;;3.20;;
27889;SDS011;15238;49.082;9.102;2023-02-21T01:38:18;9.07;;;3.47;;
27889;SDS011;15238;49.082;9.102;2023-02-21T01:40:37;6.95;;;3.30;;
27889;SDS011;15238;49.082;9.102;2023-02-21T01:47:38;6.45;;;3.63;;
27889;SDS011;15238;49.082;9.102;2023-02-21T01:49:58;8.70;;;3.40;;
27889;SDS011;15238;49.082;9.102;2023-02-21T01:52:18;6.60;;;3.40;;
27889;SDS011;15238;49.082;9.102;2023-02-21T01:54:42;10.18;;;3.47;;
27889;SDS011;15238;49.082;9.102;2023-02-21T01:57:05;13.38;;;4.63;;
27889;SDS011;15238;49.082;9.102;2023-02-21T01:59:25;8.88;;;3.63;;
27889;SDS011;15238;49.082;9.102;2023-02-21T02:04:19;5.93;;;2.72;;
27889;SDS011;15238;49.082;9.102;2023-02-21T02:06:38;7.22;;;3.30;;
27889;SDS011;15238;49.082;9.102;2023-02-21T02:09:05;6.78;;;3.10;;
27889;SDS011;15238;49.082;9.102;2023-02-21T02:19:54;4.85;;;2.90;;
27889;SDS011;15238;49.082;9.102;2023-02-21T02:25:14;8.00;;;3.28;;
27889;SDS011;15238;49.082;9.102;2023-02-21T02:27:32;4.97;;;3.25;;
27889;SDS011;15238;49.082;9.102;2023-02-21T02:36:52;6.05;;;3.38;;
27889;SDS011;15238;49.082;9.102;2023-02-21T02:42:14;8.32;;;4.20;;
27889;SDS011;15238;49.082;9.102;2023-02-21T02:44:12;9.10;;;3.45;;
27889;SDS011;15238;49.082;9.102;2023-02-21T02:46:28;8.82;;;3.70;;
27889;SDS011;15238;49.082;9.102;2023-02-21T02:48:41;12.48;;;3.72;;
27889;SDS011;15238;49.082;9.102;2023-02-21T02:50:46;7.93;;;3.60;;
27889;SDS011;15238;49.082;9.102;2023-02-21T02:52:49;8.73;;;3.78;;
27889;SDS011;15238;49.082;9.102;2023-02-21T02:55:00;6.72;;;3.78;;
27889;SDS011;15238;49.082;9.102;2023-02-21T02:57:22;7.80;;;3.65;;
27889;SDS011;15238;49.082;9.102;2023-02-21T02:59:24;4.82;;;3.22;;
27889;SDS011;15238;49.082;9.102;2023-02-21T03:04:16;8.10;;;3.83;;
27889;SDS011;15238;49.082;9.102;2023-02-21T03:08:56;8.50;;;4.50;;
27889;SDS011;15238;49.082;9.102;2023-02-21T03:11:13;8.02;;;4.63;;
27889;SDS011;15238;49.082;9.102;2023-02-21T03:13:17;8.65;;;4.45;;
27889;SDS011;15238;49.082;9.102;2023-02-21T03:15:24;4.80;;;2.95;;
27889;SDS011;15238;49.082;9.102;2023-02-21T03:17:32;9.27;;;3.65;;
27889;SDS011;15238;49.082;9.102;2023-02-21T03:19:40;8.05;;;4.15;;
27889;SDS011;15238;49.082;9.102;2023-02-21T03:21:47;5.82;;;3.53;;
27889;SDS011;15238;49.082;9.102;2023-02-21T03:23:51;7.10;;;3.83;;
27889;SDS011;15238;49.082;9.102;2023-02-21T03:25:55;9.57;;;3.85;;
27889;SDS011;15238;49.082;9.102;2023-02-21T03:28:00;5.78;;;2.92;;
27889;SDS011;15238;49.082;9.102;2023-02-21T03:30:02;5.15;;;3.40;;
27889;SDS011;15238;49.082;9.102;2023-02-21T03:32:05;8.10;;;3.65;;
27889;SDS011;15238;49.082;9.102;2023-02-21T03:36:15;8.32;;;3.58;;
27889;SDS011;15238;49.082;9.102;2023-02-21T03:38:15;5.78;;;2.85;;
27889;SDS011;15238;49.082;9.102;2023-02-21T03:40:26;5.82;;;3.40;;
27889;SDS011;15238;49.082;9.102;2023-02-21T03:42:28;6.70;;;3.40;;
27889;SDS011;15238;49.082;9.102;2023-02-21T03:44:28;9.43;;;3.70;;
27889;SDS011;15238;49.082;9.102;2023-02-21T03:46:29;13.07;;;4.47;;
27889;SDS011;15238;49.082;9.102;2023-02-21T03:48:31;18.23;;;4.57;;
27889;SDS011;15238;49.082;9.102;2023-02-21T03:50:31;7.50;;;3.95;;
27889;SDS011;15238;49.082;9.102;2023-02-21T03:52:32;12.30;;;4.03;;
27889;SDS011;15238;49.082;9.102;2023-02-21T03:54:32;10.18;;;3.75;;
27889;SDS011;15238;49.082;9.102;2023-02-21T03:56:33;10.90;;;4.30;;
27889;SDS011;15238;49.082;9.102;2023-02-21T03:58:33;9.50;;;4.03;;
27889;SDS011;15238;49.082;9.102;2023-02-21T04:00:34;7.88;;;3.90;;
27889;SDS011;15238;49.082;9.102;2023-02-21T04:02:35;8.27;;;3.58;;
27889;SDS011;15238;49.082;9.102;2023-02-21T04:04:35;4.65;;;3.53;;
27889;SDS011;15238;49.082;9.102;2023-02-21T04:06:36;8.52;;;4.18;;
27889;SDS011;15238;49.082;9.102;2023-02-21T04:08:36;11.00;;;4.25;;
27889;SDS011;15238;49.082;9.102;2023-02-21T04:10:37;8.75;;;4.80;;
27889;SDS011;15238;49.082;9.102;2023-02-21T04:12:37;7.72;;;4.60;;
27889;SDS011;15238;49.082;9.102;2023-02-21T04:14:38;8.57;;;4.20;;
27889;SDS011;15238;49.082;9.102;2023-02-21T04:16:38;8.13;;;4.60;;
27889;SDS011;15238;49.082;9.102;2023-02-21T04:18:40;8.45;;;4.45;;
27889;SDS011;15238;49.082;9.102;2023-02-21T04:20:40;9.77;;;4.00;;
27889;SDS011;15238;49.082;9.102;2023-02-21T04:22:41;8.48;;;4.65;;
27889;SDS011;15238;49.082;9.102;2023-02-21T04:24:41;11.35;;;5.65;;
27889;SDS011;15238;49.082;9.102;2023-02-21T04:26:42;13.50;;;4.68;;
27889;SDS011;15238;49.082;9.102;2023-02-21T04:28:42;9.40;;;4.63;;
27889;SDS011;15238;49.082;9.102;2023-02-21T04:30:43;10.40;;;4.38;;
27889;SDS011;15238;49.082;9.102;2023-02-21T04:32:44;9.65;;;4.43;;
27889;SDS011;15238;49.082;9.102;2023-02-21T04:34:45;9.68;;;4.60;;
27889;SDS011;15238;49.082;9.102;2023-02-21T04:36:45;10.68;;;4.55;;
27889;SDS011;15238;49.082;9.102;2023-02-21T04:38:46;7.85;;;4.65;;
27889;SDS011;15238;49.082;9.102;2023-02-21T04:40:46;11.48;;;5.00;;
27889;SDS011;15238;49.082;9.102;2023-02-21T04:42:47;6.13;;;4.05;;
27889;SDS011;15238;49.082;9.102;2023-02-21T04:44:47;8.35;;;3.97;;
27889;SDS011;15238;49.082;9.102;2023-02-21T04:46:48;8.70;;;4.60;;
27889;SDS011;15238;49.082;9.102;2023-02-21T04:48:49;7.40;;;4.22;;
27889;SDS011;15238;49.082;9.102;2023-02-21T04:50:51;8.20;;;3.97;;
27889;SDS011;15238;49.082;9.102;2023-02-21T04:52:52;10.50;;;4.32;;
27889;SDS011;15238;49.082;9.102;2023-02-21T04:54:52;11.20;;;3.92;;
27889;SDS011;15238;49.082;9.102;2023-02-21T04:56:53;7.70;;;4.30;;
27889;SDS011;15238;49.082;9.102;2023-02-21T04:58:53;7.75;;;3.55;;
27889;SDS011;15238;49.082;9.102;2023-02-21T05:00:54;9.80;;;3.63;;
27889;SDS011;15238;49.082;9.102;2023-02-21T05:02:55;10.82;;;4.25;;
27889;SDS011;15238;49.082;9.102;2023-02-21T05:04:56;10.15;;;4.20;;
27889;SDS011;15238;49.082;9.102;2023-02-21T05:06:59;10.50;;;3.90;;
27889;SDS011;15238;49.082;9.102;2023-02-21T05:09:00;8.43;;;3.85;;
27889;SDS011;15238;49.082;9.102;2023-02-21T05:11:01;6.72;;;4.00;;
27889;SDS011;15238;49.082;9.102;2023-02-21T05:13:02;7.60;;;3.88;;
27889;SDS011;15238;49.082;9.102;2023-02-21T05:15:03;8.00;;;3.92;;
27889;SDS011;15238;49.082;9.102;2023-02-21T05:17:04;8.77;;;4.00;;
27889;SDS011;15238;49.082;9.102;2023-02-21T05:19:05;8.13;;;4.28;;
27889;SDS011;15238;49.082;9.102;2023-02-21T05:21:05;8.95;;;4.22;;
27889;SDS011;15238;49.082;9.102;2023-02-21T05:23:06;8.18;;;4.32;;
27889;SDS011;15238;49.082;9.102;2023-02-21T05:25:09;10.40;;;4.22;;
27889;SDS011;15238;49.082;9.102;2023-02-21T05:27:21;9.45;;;4.22;;
27889;SDS011;15238;49.082;9.102;2023-02-21T05:29:22;7.60;;;5.07;;
27889;SDS011;15238;49.082;9.102;2023-02-21T05:31:22;5.95;;;3.90;;
27889;SDS011;15238;49.082;9.102;2023-02-21T05:33:23;9.57;;;4.78;;
27889;SDS011;15238;49.082;9.102;2023-02-21T05:35:24;8.65;;;3.97;;
27889;SDS011;15238;49.082;9.102;2023-02-21T05:37:24;8.00;;;3.40;;
27889;SDS011;15238;49.082;9.102;2023-02-21T05:39:25;6.55;;;3.42;;
27889;SDS011;15238;49.082;9.102;2023-02-21T05:41:25;8.55;;;3.38;;
27889;SDS011;15238;49.082;9.102;2023-02-21T05:43:26;6.07;;;3.45;;
27889;SDS011;15238;49.082;9.102;2023-02-21T05:45:26;5.95;;;3.50;;
27889;SDS011;15238;49.082;9.102;2023-02-21T05:47:27;8.25;;;4.13;;
27889;SDS011;15238;49.082;9.102;2023-02-21T05:49:27;6.88;;;3.75;;
27889;SDS011;15238;49.082;9.102;2023-02-21T05:51:39;6.38;;;3.30;;
27889;SDS011;15238;49.082;9.102;2023-02-21T05:53:42;7.50;;;3.65;;
27889;SDS011;15238;49.082;9.102;2023-02-21T05:55:42;5.95;;;3.10;;
27889;SDS011;15238;49.082;9.102;2023-02-21T05:57:43;5.82;;;3.40;;
27889;SDS011;15238;49.082;9.102;2023-02-21T05:59:43;12.52;;;5.03;;
27889;SDS011;15238;49.082;9.102;2023-02-21T06:01:47;6.20;;;4.10;;
27889;SDS011;15238;49.082;9.102;2023-02-21T06:03:48;6.30;;;3.60;;
27889;SDS011;15238;49.082;9.102;2023-02-21T06:05:49;10.20;;;3.88;;
27889;SDS011;15238;49.082;9.102;2023-02-21T06:07:49;8.30;;;4.15;;
27889;SDS011;15238;49.082;9.102;2023-02-21T06:09:50;7.53;;;3.90;;
27889;SDS011;15238;49.082;9.102;2023-02-21T06:11:54;9.23;;;4.50;;
27889;SDS011;15238;49.082;9.102;2023-02-21T06:13:56;8.85;;;3.95;;
27889;SDS011;15238;49.082;9.102;2023-02-21T06:15:57;9.57;;;4.20;;
27889;SDS011;15238;49.082;9.102;2023-02-21T06:17:57;8.15;;;3.70;;
27889;SDS011;15238;49.082;9.102;2023-02-21T06:19:58;8.68;;;4.95;;
27889;SDS011;15238;49.082;9.102;2023-02-21T06:21:58;8.15;;;4.78;;
27889;SDS011;15238;49.082;9.102;2023-02-21T06:23:59;10.27;;;4.85;;
27889;SDS011;15238;49.082;9.102;2023-02-21T06:26:00;7.90;;;4.47;;
27889;SDS011;15238;49.082;9.102;2023-02-21T06:28:00;8.82;;;4.47;;
27889;SDS011;15238;49.082;9.102;2023-02-21T06:30:02;11.63;;;5.00;;
27889;SDS011;15238;49.082;9.102;2023-02-21T06:32:03;7.13;;;4.28;;
27889;SDS011;15238;49.082;9.102;2023-02-21T06:34:04;7.38;;;4.20;;
27889;SDS011;15238;49.082;9.102;2023-02-21T06:36:05;9.70;;;4.97;;
27889;SDS011;15238;49.082;9.102;2023-02-21T06:38:08;10.05;;;4.85;;
27889;SDS011;15238;49.082;9.102;2023-02-21T06:40:08;9.70;;;4.85;;
27889;SDS011;15238;49.082;9.102;2023-02-21T06:42:12;24.88;;;6.30;;
27889;SDS011;15238;49.082;9.102;2023-02-21T06:44:14;21.55;;;8.10;;
27889;SDS011;15238;49.082;9.102;2023-02-21T06:46:16;11.73;;;6.90;;
27889;SDS011;15238;49.082;9.102;2023-02-21T06:48:18;14.05;;;6.28;;
27889;SDS011;15238;49.082;9.102;2023-02-21T06:50:18;14.57;;;6.72;;
27889;SDS011;15238;49.082;9.102;2023-02-21T06:52:19;13.32;;;5.72;;
27889;SDS011;15238;49.082;9.102;2023-02-21T06:54:19;12.65;;;6.10;;
27889;SDS011;15238;49.082;9.102;2023-02-21T06:56:20;16.35;;;5.80;;
27889;SDS011;15238;49.082;9.102;2023-02-21T06:58:21;12.25;;;5.60;;
27889;SDS011;15238;49.082;9.102;2023-02-21T07:00:21;13.88;;;5.50;;
27889;SDS011;15238;49.082;9.102;2023-02-21T07:02:22;10.82;;;4.95;;
27889;SDS011;15238;49.082;9.102;2023-02-21T07:04:23;12.20;;;5.18;;
27889;SDS011;15238;49.082;9.102;2023-02-21T07:06:24;11.52;;;5.25;;
27889;SDS011;15238;49.082;9.102;2023-02-21T07:08:24;17.48;;;5.20;;
27889;SDS011;15238;49.082;9.102;2023-02-21T07:10:25;12.85;;;4.90;;
27889;SDS011;15238;49.082;9.102;2023-02-21T07:12:27;16.33;;;4.68;;
27889;SDS011;15238;49.082;9.102;2023-02-21T07:14:27;9.38;;;4.63;;
27889;SDS011;15238;49.082;9.102;2023-02-21T07:16:28;9.48;;;5.00;;
27889;SDS011;15238;49.082;9.102;2023-02-21T07:18:28;16.55;;;6.40;;
27889;SDS011;15238;49.082;9.102;2023-02-21T07:20:29;28.02;;;13.65;;
27889;SDS011;15238;49.082;9.102;2023-02-21T07:22:32;24.63;;;11.85;;
27889;SDS011;15238;49.082;9.102;2023-02-21T07:24:32;26.80;;;12.65;;
27889;SDS011;15238;49.082;9.102;2023-02-21T07:26:33;15.27;;;8.40;;
27889;SDS011;15238;49.082;9.102;2023-02-21T07:28:36;31.02;;;12.15;;
27889;SDS011;15238;49.082;9.102;2023-02-21T07:30:36;16.02;;;8.02;;
27889;SDS011;15238;49.082;9.102;2023-02-21T07:32:38;16.20;;;7.88;;
27889;SDS011;15238;49.082;9.102;2023-02-21T07:34:39;12.23;;;5.80;;
27889;SDS011;15238;49.082;9.102;2023-02-21T07:36:40;10.50;;;5.07;;
27889;SDS011;15238;49.082;9.102;2023-02-21T07:38:40;7.85;;;4.97;;
27889;SDS011;15238;49.082;9.102;2023-02-21T07:40:41;14.75;;;5.72;;
27889;SDS011;15238;49.082;9.102;2023-02-21T07:42:41;9.05;;;4.07;;
27889;SDS011;15238;49.082;9.102;2023-02-21T07:44:42;7.72;;;4.55;;
27889;SDS011;15238;49.082;9.102;2023-02-21T07:46:43;12.77;;;4.68;;
27889;SDS011;15238;49.082;9.102;2023-02-21T07:48:45;6.32;;;3.92;;
27889;SDS011;15238;49.082;9.102;2023-02-21T07:50:45;6.72;;;4.18;;
27889;SDS011;15238;49.082;9.102;2023-02-21T07:52:46;6.85;;;3.90;;
27889;SDS011;15238;49.082;9.102;2023-02-21T07:54:46;8.75;;;4.47;;
27889;SDS011;15238;49.082;9.102;2023-02-21T07:56:47;8.38;;;4.20;;
27889;SDS011;15238;49.082;9.102;2023-02-21T07:58:49;8.48;;;4.25;;
27889;SDS011;15238;49.082;9.102;2023-02-21T08:00:49;13.00;;;6.10;;
27889;SDS011;15238;49.082;9.102;2023-02-21T08:02:51;9.05;;;4.70;;
27889;SDS011;15238;49.082;9.102;2023-02-21T08:04:52;10.00;;;3.97;;
27889;SDS011;15238;49.082;9.102;2023-02-21T08:06:57;7.65;;;4.60;;
27889;SDS011;15238;49.082;9.102;2023-02-21T08:08:58;8.95;;;3.95;;
27889;SDS011;15238;49.082;9.102;2023-02-21T08:10:59;9.57;;;4.38;;
27889;SDS011;15238;49.082;9.102;2023-02-21T08:12:59;8.45;;;4.18;;
27889;SDS011;15238;49.082;9.102;2023-02-21T08:15:00;8.93;;;4.13;;
27889;SDS011;15238;49.082;9.102;2023-02-21T08:17:01;8.68;;;4.63;;
27889;SDS011;15238;49.082;9.102;2023-02-21T08:19:01;6.72;;;4.15;;
27889;SDS011;15238;49.082;9.102;2023-02-21T08:21:06;7.90;;;4.95;;
27889;SDS011;15238;49.082;9.102;2023-02-21T08:23:08;7.63;;;3.78;;
27889;SDS011;15238;49.082;9.102;2023-02-21T08:25:12;6.88;;;4.45;;
27889;SDS011;15238;49.082;9.102;2023-02-21T08:27:14;6.60;;;4.20;;
27889;SDS011;15238;49.082;9.102;2023-02-21T08:29:15;8.68;;;4.15;;
27889;SDS011;15238;49.082;9.102;2023-02-21T08:31:17;13.98;;;5.00;;
27889;SDS011;15238;49.082;9.102;2023-02-21T08:33:17;8.57;;;3.90;;
27889;SDS011;15238;49.082;9.102;2023-02-21T08:35:18;8.80;;;4.03;;
27889;SDS011;15238;49.082;9.102;2023-02-21T08:37:19;11.75;;;4.75;;
27889;SDS011;15238;49.082;9.102;2023-02-21T08:39:19;8.18;;;4.38;;
27889;SDS011;15238;49.082;9.102;2023-02-21T08:41:20;8.40;;;4.60;;
27889;SDS011;15238;49.082;9.102;2023-02-21T08:43:21;11.63;;;4.53;;
27889;SDS011;15238;49.082;9.102;2023-02-21T08:45:23;10.63;;;4.30;;
27889;SDS011;15238;49.082;9.102;2023-02-21T08:47:25;8.23;;;4.32;;
27889;SDS011;15238;49.082;9.102;2023-02-21T08:49:25;7.68;;;4.78;;
27889;SDS011;15238;49.082;9.102;2023-02-21T08:51:26;8.63;;;4.00;;
27889;SDS011;15238;49.082;9.102;2023-02-21T08:53:29;10.05;;;4.18;;
27889;SDS011;15238;49.082;9.102;2023-02-21T08:55:29;8.48;;;4.13;;
27889;SDS011;15238;49.082;9.102;2023-02-21T08:57:30;5.90;;;4.03;;
27889;SDS011;15238;49.082;9.102;2023-02-21T08:59:30;9.75;;;4.07;;
27889;SDS011;15238;49.082;9.102;2023-02-21T09:01:33;11.18;;;3.95;;
27889;SDS011;15238;49.082;9.102;2023-02-21T09:03:34;10.80;;;4.10;;
27889;SDS011;15238;49.082;9.102;2023-02-21T09:05:35;7.82;;;3.75;;
27889;SDS011;15238;49.082;9.102;2023-02-21T09:07:35;6.18;;;3.67;;
27889;SDS011;15238;49.082;9.102;2023-02-21T09:09:36;7.07;;;3.45;;
27889;SDS011;15238;49.082;9.102;2023-02-21T09:11:37;12.05;;;4.53;;
27889;SDS011;15238;49.082;9.102;2023-02-21T09:13:38;6.05;;;3.53;;
27889;SDS011;15238;49.082;9.102;2023-02-21T09:15:38;8.35;;;4.03;;
27889;SDS011;15238;49.082;9.102;2023-02-21T09:17:39;12.20;;;5.32;;
27889;SDS011;15238;49.082;9.102;2023-02-21T09:19:40;10.85;;;5.45;;
27889;SDS011;15238;49.082;9.102;2023-02-21T09:21:46;10.20;;;4.10;;
27889;SDS011;15238;49.082;9.102;2023-02-21T09:23:50;11.07;;;3.80;;
27889;SDS011;15238;49.082;9.102;2023-02-21T09:25:55;7.70;;;3.78;;
27889;SDS011;15238;49.082;9.102;2023-02-21T09:27:56;9.95;;;4.10;;
27889;SDS011;15238;49.082;9.102;2023-02-21T09:29:59;10.13;;;4.35;;
27889;SDS011;15238;49.082;9.102;2023-02-21T09:32:00;11.48;;;4.75;;
27889;SDS011;15238;49.082;9.102;2023-02-21T09:34:01;8.57;;;4.20;;
27889;SDS011;15238;49.082;9.102;2023-02-21T09:36:01;6.75;;;3.67;;
27889;SDS011;15238;49.082;9.102;2023-02-21T09:38:05;16.77;;;4.45;;
27889;SDS011;15238;49.082;9.102;2023-02-21T09:40:20;8.50;;;4.28;;
27889;SDS011;15238;49.082;9.102;2023-02-21T09:42:34;8.10;;;4.35;;
27889;SDS011;15238;49.082;9.102;2023-02-21T09:44:35;10.38;;;3.97;;
27889;SDS011;15238;49.082;9.102;2023-02-21T09:46:37;8.90;;;3.80;;
27889;SDS011;15238;49.082;9.102;2023-02-21T09:48:39;9.00;;;4.03;;
27889;SDS011;15238;49.082;9.102;2023-02-21T09:50:54;11.77;;;3.83;;
27889;SDS011;15238;49.082;9.102;2023-02-21T09:52:57;6.82;;;3.85;;
27889;SDS011;15238;49.082;9.102;2023-02-21T09:54:59;7.45;;;3.85;;
27889;SDS011;15238;49.082;9.102;2023-02-21T09:57:10;8.23;;;3.95;;
27889;SDS011;15238;49.082;9.102;2023-02-21T09:59:15;9.65;;;3.97;;
27889;SDS011;15238;49.082;9.102;2023-02-21T10:01:24;8.73;;;3.88;;
27889;SDS011;15238;49.082;9.102;2023-02-21T10:03:44;10.68;;;4.10;;
27889;SDS011;15238;49.082;9.102;2023-02-21T10:06:09;8.43;;;4.18;;
27889;SDS011;15238;49.082;9.102;2023-02-21T10:10:43;12.13;;;5.25;;
27889;SDS011;15238;49.082;9.102;2023-02-21T10:15:01;7.78;;;3.78;;
27889;SDS011;15238;49.082;9.102;2023-02-21T10:17:20;7.85;;;4.40;;
27889;SDS011;15238;49.082;9.102;2023-02-21T10:19:34;14.60;;;4.45;;
27889;SDS011;15238;49.082;9.102;2023-02-21T10:21:39;7.75;;;4.75;;
27889;SDS011;15238;49.082;9.102;2023-02-21T10:23:44;9.45;;;4.53;;
27889;SDS011;15238;49.082;9.102;2023-02-21T10:25:48;7.45;;;4.35;;
27889;SDS011;15238;49.082;9.102;2023-02-21T10:27:53;11.23;;;4.68;;
27889;SDS011;15238;49.082;9.102;2023-02-21T10:32:00;10.82;;;5.20;;
27889;SDS011;15238;49.082;9.102;2023-02-21T10:34:02;6.80;;;4.40;;
27889;SDS011;15238;49.082;9.102;2023-02-21T10:36:10;9.02;;;4.78;;
27889;SDS011;15238;49.082;9.102;2023-02-21T10:38:13;12.88;;;5.03;;
27889;SDS011;15238;49.082;9.102;2023-02-21T10:40:26;17.77;;;5.80;;
27889;SDS011;15238;49.082;9.102;2023-02-21T10:42:30;9.85;;;4.32;;
27889;SDS011;15238;49.082;9.102;2023-02-21T10:44:36;9.00;;;4.80;;
27889;SDS011;15238;49.082;9.102;2023-02-21T10:46:48;10.27;;;4.63;;
27889;SDS011;15238;49.082;9.102;2023-02-21T10:49:23;10.93;;;4.35;;
27889;SDS011;15238;49.082;9.102;2023-02-21T10:51:29;10.80;;;4.50;;
27889;SDS011;15238;49.082;9.102;2023-02-21T10:53:37;7.85;;;4.00;;
27889;SDS011;15238;49.082;9.102;2023-02-21T10:55:39;8.35;;;4.65;;
27889;SDS011;15238;49.082;9.102;2023-02-21T10:57:41;11.75;;;4.55;;
27889;SDS011;15238;49.082;9.102;2023-02-21T10:59:44;12.32;;;4.13;;
27889;SDS011;15238;49.082;9.102;2023-02-21T11:01:47;11.05;;;4.88;;
27889;SDS011;15238;49.082;9.102;2023-02-21T11:03:50;8.25;;;4.20;;
27889;SDS011;15238;49.082;9.102;2023-02-21T11:05:55;9.98;;;4.22;;
27889;SDS011;15238;49.082;9.102;2023-02-21T11:08:09;8.48;;;4.70;;
27889;SDS011;15238;49.082;9.102;2023-02-21T11:10:23;11.65;;;4.35;;
27889;SDS011;15238;49.082;9.102;2023-02-21T11:12:28;12.02;;;4.85;;
27889;SDS011;15238;49.082;9.102;2023-02-21T11:14:32;9.35;;;3.92;;
27889;SDS011;15238;49.082;9.102;2023-02-21T11:16:33;9.52;;;4.13;;
27889;SDS011;15238;49.082;9.102;2023-02-21T11:18:35;8.27;;;4.47;;
27889;SDS011;15238;49.082;9.102;2023-02-21T11:20:36;7.07;;;3.58;;
27889;SDS011;15238;49.082;9.102;2023-02-21T11:22:37;16.25;;;5.25;;
27889;SDS011;15238;49.082;9.102;2023-02-21T11:27:27;9.20;;;4.28;;
27889;SDS011;15238;49.082;9.102;2023-02-21T11:29:30;9.52;;;4.20;;
27889;SDS011;15238;49.082;9.102;2023-02-21T11:31:31;8.68;;;4.43;;
27889;SDS011;15238;49.082;9.102;2023-02-21T11:33:34;8.27;;;4.25;;
27889;SDS011;15238;49.082;9.102;2023-02-21T11:35:37;10.05;;;4.70;;
27889;SDS011;15238;49.082;9.102;2023-02-21T11:38:28;8.90;;;4.68;;
27889;SDS011;15238;49.082;9.102;2023-02-21T11:42:40;14.02;;;4.55;;
27889;SDS011;15238;49.082;9.102;2023-02-21T11:44:41;6.43;;;4.20;;
27889;SDS011;15238;49.082;9.102;2023-02-21T11:46:45;9.50;;;4.50;;
27889;SDS011;15238;49.082;9.102;2023-02-21T11:48:57;9.15;;;4.03;;
27889;SDS011;15238;49.082;9.102;2023-02-21T11:51:12;9.20;;;4.15;;
27889;SDS011;15238;49.082;9.102;2023-02-21T11:53:30;8.43;;;4.22;;
27889;SDS011;15238;49.082;9.102;2023-02-21T11:55:35;11.13;;;4.78;;
27889;SDS011;15238;49.082;9.102;2023-02-21T12:00:06;10.20;;;4.53;;
27889;SDS011;15238;49.082;9.102;2023-02-21T12:08:03;10.25;;;4.30;;
27889;SDS011;15238;49.082;9.102;2023-02-21T12:09:47;9.10;;;4.82;;
27889;SDS011;15238;49.082;9.102;2023-02-21T12:12:11;11.00;;;4.32;;
27889;SDS011;15238;49.082;9.102;2023-02-21T12:33:45;9.82;;;4.25;;
27889;SDS011;15238;49.082;9.102;2023-02-21T12:38:41;9.75;;;4.63;;
27889;SDS011;15238;49.082;9.102;2023-02-21T12:42:56;12.73;;;4.70;;
27889;SDS011;15238;49.082;9.102;2023-02-21T12:47:28;8.77;;;4.38;;
27889;SDS011;15238;49.082;9.102;2023-02-21T12:49:59;7.18;;;4.25;;
27889;SDS011;15238;49.082;9.102;2023-02-21T12:52:27;9.07;;;4.93;;
27889;SDS011;15238;49.082;9.102;2023-02-21T12:54:44;9.63;;;4.47;;
27889;SDS011;15238;49.082;9.102;2023-02-21T12:57:11;9.23;;;4.40;;
27889;SDS011;15238;49.082;9.102;2023-02-21T12:59:29;9.55;;;4.05;;
27889;SDS011;15238;49.082;9.102;2023-02-21T13:01:33;10.73;;;4.20;;
27889;SDS011;15238;49.082;9.102;2023-02-21T13:04:05;8.50;;;4.40;;
27889;SDS011;15238;49.082;9.102;2023-02-21T13:08:46;8.82;;;5.15;;
27889;SDS011;15238;49.082;9.102;2023-02-21T13:11:13;7.53;;;5.05;;
27889;SDS011;15238;49.082;9.102;2023-02-21T13:13:25;9.10;;;4.68;;
27889;SDS011;15238;49.082;9.102;2023-02-21T13:15:28;12.23;;;3.70;;
27889;SDS011;15238;49.082;9.102;2023-02-21T13:17:30;7.50;;;3.70;;
27889;SDS011;15238;49.082;9.102;2023-02-21T13:19:37;7.80;;;3.95;;
27889;SDS011;15238;49.082;9.102;2023-02-21T13:27:30;9.85;;;3.78;;
27889;SDS011;15238;49.082;9.102;2023-02-21T13:29:33;5.30;;;3.45;;
27889;SDS011;15238;49.082;9.102;2023-02-21T13:31:44;5.30;;;3.38;;
27889;SDS011;15238;49.082;9.102;2023-02-21T13:33:51;9.27;;;4.22;;
27889;SDS011;15238;49.082;9.102;2023-02-21T13:35:59;9.27;;;5.80;;
27889;SDS011;15238;49.082;9.102;2023-02-21T13:38:03;19.33;;;5.05;;
27889;SDS011;15238;49.082;9.102;2023-02-21T13:42:35;7.45;;;3.53;;
27889;SDS011;15238;49.082;9.102;2023-02-21T13:44:49;7.05;;;3.63;;
27889;SDS011;15238;49.082;9.102;2023-02-21T13:47:08;4.82;;;3.33;;
27889;SDS011;15238;49.082;9.102;2023-02-21T13:51:50;6.20;;;3.05;;
27889;SDS011;15238;49.082;9.102;2023-02-21T13:54:07;7.10;;;3.58;;
27889;SDS011;15238;49.082;9.102;2023-02-21T13:56:12;8.07;;;3.47;;
27889;SDS011;15238;49.082;9.102;2023-02-21T14:02:26;8.50;;;2.70;;
27889;SDS011;15238;49.082;9.102;2023-02-21T14:06:56;6.25;;;2.97;;
27889;SDS011;15238;49.082;9.102;2023-02-21T14:08:59;8.55;;;2.67;;
27889;SDS011;15238;49.082;9.102;2023-02-21T14:11:21;4.05;;;2.30;;
27889;SDS011;15238;49.082;9.102;2023-02-21T14:13:32;4.85;;;2.80;;
27889;SDS011;15238;49.082;9.102;2023-02-21T14:15:42;9.57;;;2.67;;
27889;SDS011;15238;49.082;9.102;2023-02-21T14:17:46;9.27;;;2.97;;
27889;SDS011;15238;49.082;9.102;2023-02-21T14:19:49;6.65;;;2.80;;
27889;SDS011;15238;49.082;9.102;2023-02-21T14:24:19;7.15;;;2.58;;